createdAt,value
2019-05-26T00:00:31.653Z,12.61
2019-05-26T00:01:31.690Z,12.63
2019-05-26T00:02:31.631Z,12.61
2019-05-26T00:03:31.622Z,12.61
2019-05-26T00:04:31.610Z,12.55
2019-05-26T00:05:31.597Z,12.59
2019-05-26T00:06:31.650Z,12.47
2019-05-26T00:07:31.621Z,12.48
2019-05-26T00:08:31.563Z,12.50
2019-05-26T00:09:31.553Z,12.47
2019-05-26T00:10:31.539Z,12.47
2019-05-26T00:11:31.590Z,12.48
2019-05-26T00:12:31.523Z,12.50
2019-05-26T00:13:31.509Z,12.59
2019-05-26T00:14:31.494Z,12.51
2019-05-26T00:15:31.495Z,12.58
2019-05-26T00:16:31.478Z,12.51
2019-05-26T00:17:31.501Z,12.51
2019-05-26T00:18:33.485Z,12.48
2019-05-26T00:19:31.436Z,12.46
2019-05-26T00:20:31.470Z,12.44
2019-05-26T00:21:31.414Z,12.36
2019-05-26T00:22:31.402Z,12.30
2019-05-26T00:23:31.435Z,12.30
2019-05-26T00:24:31.389Z,12.25
2019-05-26T00:25:31.370Z,12.32
2019-05-26T00:26:31.363Z,12.21
2019-05-26T00:27:31.350Z,12.21
2019-05-26T00:28:31.337Z,12.23
2019-05-26T00:29:31.369Z,12.21
2019-05-26T00:30:31.311Z,12.10
2019-05-26T00:31:31.301Z,12.22
2019-05-26T00:32:31.291Z,12.22
2019-05-26T00:33:31.278Z,12.11
2019-05-26T00:34:31.270Z,12.08
2019-05-26T00:35:31.304Z,12.04
2019-05-26T00:36:31.245Z,11.93
2019-05-26T00:37:47.698Z,11.96
2019-05-26T00:38:32.222Z,11.97
2019-05-26T00:39:31.210Z,11.88
2019-05-26T00:40:31.242Z,11.93
2019-05-26T00:41:31.186Z,11.91
2019-05-26T00:42:31.176Z,11.93
2019-05-26T00:43:31.165Z,11.95
2019-05-26T00:44:31.153Z,12.07
2019-05-26T00:45:31.183Z,11.99
2019-05-26T00:46:31.129Z,11.87
2019-05-26T00:47:31.119Z,11.87
2019-05-26T00:48:31.148Z,11.91
2019-05-26T00:49:31.166Z,11.97
2019-05-26T00:50:31.085Z,11.96
2019-05-26T00:51:31.115Z,12.04
2019-05-26T00:52:31.062Z,12.07
2019-05-26T00:53:31.056Z,12.05
2019-05-26T00:54:31.038Z,12.05
2019-05-26T00:55:31.028Z,12.00
2019-05-26T00:56:31.017Z,12.05
2019-05-26T00:57:31.049Z,12.08
2019-05-26T00:58:30.994Z,12.08
2019-05-26T00:59:30.982Z,12.03
2019-05-26T01:00:30.971Z,11.96
2019-05-26T01:01:31.003Z,11.91
2019-05-26T01:02:30.953Z,11.88
2019-05-26T01:03:30.939Z,11.82
2019-05-26T01:04:30.925Z,11.82
2019-05-26T01:05:30.917Z,11.76
2019-05-26T01:06:30.944Z,11.79
2019-05-26T01:07:30.898Z,11.79
2019-05-26T01:08:30.883Z,11.74
2019-05-26T01:09:30.868Z,11.74
2019-05-26T01:10:30.857Z,11.71
2019-05-26T01:11:30.884Z,11.76
2019-05-26T01:12:30.836Z,11.71
2019-05-26T01:13:30.823Z,11.82
2019-05-26T01:14:30.812Z,11.80
2019-05-26T01:15:30.800Z,11.76
2019-05-26T01:16:30.833Z,11.84
2019-05-26T01:17:30.779Z,11.80
2019-05-26T01:18:30.766Z,11.66
2019-05-26T01:19:30.756Z,11.70
2019-05-26T01:20:30.743Z,11.70
2019-05-26T01:21:30.774Z,11.61
2019-05-26T01:22:30.725Z,11.66
2019-05-26T01:23:30.712Z,11.55
2019-05-26T01:24:30.701Z,11.66
2019-05-26T01:25:30.731Z,11.49
2019-05-26T01:26:30.685Z,11.70
2019-05-26T01:27:30.672Z,11.64
2019-05-26T01:28:30.694Z,11.61
2019-05-26T01:29:30.644Z,11.58
2019-05-26T01:30:30.674Z,11.58
2019-05-26T01:31:30.624Z,11.48
2019-05-26T01:32:30.609Z,11.45
2019-05-26T01:33:30.599Z,11.41
2019-05-26T01:34:30.585Z,11.43
2019-05-26T01:35:30.574Z,11.37
2019-05-26T01:36:30.603Z,11.34
2019-05-26T01:37:30.552Z,11.30
2019-05-26T01:38:30.541Z,11.25
2019-05-26T01:39:30.528Z,11.31
2019-05-26T01:40:30.518Z,11.27
2019-05-26T01:41:30.550Z,11.25
2019-05-26T01:42:30.497Z,11.23
2019-05-26T01:43:30.525Z,11.20
2019-05-26T01:44:30.473Z,11.19
2019-05-26T01:45:30.569Z,11.18
2019-05-26T01:46:30.452Z,11.15
2019-05-26T01:47:30.496Z,11.04
2019-05-26T01:48:30.428Z,11.15
2019-05-26T01:49:30.415Z,11.11
2019-05-26T01:50:30.411Z,11.09
2019-05-26T01:51:30.399Z,11.08
2019-05-26T01:52:30.391Z,11.23
2019-05-26T01:53:30.413Z,11.11
2019-05-26T01:54:30.399Z,11.18
2019-05-26T01:55:30.392Z,11.22
2019-05-26T01:56:30.380Z,11.18
2019-05-26T01:57:30.325Z,11.23
2019-05-26T01:58:30.331Z,11.22
2019-05-26T01:59:30.304Z,11.25
2019-05-26T02:00:30.293Z,11.25
2019-05-26T02:01:30.315Z,11.16
2019-05-26T02:02:30.271Z,11.23
2019-05-26T02:03:30.309Z,11.13
2019-05-26T02:04:30.249Z,11.16
2019-05-26T02:05:30.239Z,11.19
2019-05-26T02:06:30.225Z,11.08
2019-05-26T02:07:30.248Z,11.09
2019-05-26T02:08:38.788Z,11.05
2019-05-26T02:09:31.191Z,11.09
2019-05-26T02:10:30.180Z,11.04
2019-05-26T02:11:30.171Z,11.08
2019-05-26T02:12:30.188Z,10.98
2019-05-26T02:13:30.156Z,11.03
2019-05-26T02:14:30.135Z,11.11
2019-05-26T02:15:30.161Z,11.09
2019-05-26T02:16:30.112Z,11.05
2019-05-26T02:17:30.102Z,11.00
2019-05-26T02:18:30.123Z,11.09
2019-05-26T02:19:30.077Z,10.98
2019-05-26T02:20:30.065Z,11.00
2019-05-26T02:21:30.089Z,10.95
2019-05-26T02:22:30.045Z,10.95
2019-05-26T02:23:30.065Z,10.98
2019-05-26T02:24:30.027Z,10.95
2019-05-26T02:25:30.009Z,10.91
2019-05-26T02:26:29.998Z,10.93
2019-05-26T02:27:30.023Z,10.95
2019-05-26T02:28:30.013Z,10.95
2019-05-26T02:29:29.968Z,10.93
2019-05-26T02:30:29.993Z,10.94
2019-05-26T02:31:29.943Z,10.95
2019-05-26T02:32:29.932Z,10.91
2019-05-26T02:33:29.921Z,10.98
2019-05-26T02:34:29.925Z,10.91
2019-05-26T02:35:29.942Z,10.91
2019-05-26T02:36:29.889Z,10.91
2019-05-26T02:37:29.881Z,10.98
2019-05-26T02:38:29.870Z,11.05
2019-05-26T02:39:29.855Z,10.98
2019-05-26T02:40:29.841Z,10.95
2019-05-26T02:41:29.867Z,11.05
2019-05-26T02:42:29.819Z,11.08
2019-05-26T02:43:29.813Z,11.09
2019-05-26T02:44:29.813Z,11.04
2019-05-26T02:45:29.816Z,11.11
2019-05-26T02:46:29.794Z,11.01
2019-05-26T02:47:29.805Z,11.05
2019-05-26T02:48:29.754Z,11.08
2019-05-26T02:49:29.740Z,11.05
2019-05-26T02:50:29.730Z,11.11
2019-05-26T02:51:29.720Z,11.11
2019-05-26T02:52:29.814Z,11.09
2019-05-26T02:53:29.725Z,11.20
2019-05-26T02:54:29.697Z,11.12
2019-05-26T02:55:29.677Z,11.13
2019-05-26T02:56:29.661Z,11.15
2019-05-26T02:57:29.651Z,11.05
2019-05-26T02:58:29.672Z,11.03
2019-05-26T02:59:29.634Z,11.01
2019-05-26T03:00:29.630Z,11.12
2019-05-26T03:01:29.640Z,11.01
2019-05-26T03:02:29.601Z,11.13
2019-05-26T03:03:29.615Z,10.95
2019-05-26T03:04:29.604Z,11.11
2019-05-26T03:05:29.561Z,11.03
2019-05-26T03:06:29.552Z,11.01
2019-05-26T03:07:29.541Z,11.05
2019-05-26T03:08:29.527Z,11.05
2019-05-26T03:09:29.518Z,11.11
2019-05-26T03:10:29.533Z,11.12
2019-05-26T03:11:29.523Z,11.15
2019-05-26T03:12:29.484Z,11.16
2019-05-26T03:13:29.512Z,11.28
2019-05-26T03:14:29.461Z,11.22
2019-05-26T03:15:29.447Z,11.22
2019-05-26T03:16:29.437Z,11.25
2019-05-26T03:17:29.424Z,11.31
2019-05-26T03:18:29.414Z,11.23
2019-05-26T03:19:29.437Z,11.33
2019-05-26T03:20:29.443Z,11.31
2019-05-26T03:21:29.391Z,11.34
2019-05-26T03:22:29.398Z,11.22
2019-05-26T03:23:29.357Z,11.22
2019-05-26T03:24:29.364Z,11.33
2019-05-26T03:25:29.374Z,11.28
2019-05-26T03:26:29.321Z,11.34
2019-05-26T03:27:29.342Z,11.33
2019-05-26T03:28:29.310Z,11.46
2019-05-26T03:29:29.291Z,11.36
2019-05-26T03:30:29.317Z,11.45
2019-05-26T03:31:29.279Z,11.34
2019-05-26T03:32:29.255Z,11.37
2019-05-26T03:33:29.242Z,11.36
2019-05-26T03:34:29.236Z,11.37
2019-05-26T03:35:29.232Z,11.28
2019-05-26T03:36:29.238Z,11.31
2019-05-26T03:37:29.232Z,11.28
2019-05-26T03:38:29.188Z,11.33
2019-05-26T03:39:43.414Z,11.31
2019-05-26T03:40:30.165Z,11.23
2019-05-26T03:41:29.155Z,11.27
2019-05-26T03:42:29.173Z,11.22
2019-05-26T03:43:29.133Z,11.20
2019-05-26T03:44:29.117Z,11.18
2019-05-26T03:45:29.112Z,11.16
2019-05-26T03:46:29.127Z,11.23
2019-05-26T03:47:29.086Z,11.18
2019-05-26T03:48:29.075Z,11.16
2019-05-26T03:49:29.065Z,11.20
2019-05-26T03:50:29.057Z,11.19
2019-05-26T03:51:29.070Z,11.27
2019-05-26T03:52:29.025Z,11.18
2019-05-26T03:53:29.047Z,11.16
2019-05-26T03:54:29.007Z,11.13
2019-05-26T03:55:29.024Z,11.11
2019-05-26T03:56:28.988Z,11.19
2019-05-26T03:57:28.979Z,11.19
2019-05-26T03:58:28.962Z,11.11
2019-05-26T03:59:28.962Z,11.05
2019-05-26T04:00:28.972Z,11.11
2019-05-26T04:01:28.926Z,11.13
2019-05-26T04:02:28.926Z,11.12
2019-05-26T04:03:28.935Z,11.23
2019-05-26T04:04:28.893Z,11.22
2019-05-26T04:05:28.892Z,11.25
2019-05-26T04:06:28.869Z,11.25
2019-05-26T04:07:28.860Z,11.15
2019-05-26T04:08:28.865Z,11.16
2019-05-26T04:09:28.869Z,11.27
2019-05-26T04:10:28.826Z,11.28
2019-05-26T04:11:28.853Z,11.30
2019-05-26T04:12:28.804Z,11.34
2019-05-26T04:13:28.792Z,11.25
2019-05-26T04:14:28.784Z,11.46
2019-05-26T04:15:28.805Z,11.43
2019-05-26T04:16:28.757Z,11.34
2019-05-26T04:17:28.752Z,11.33
2019-05-26T04:18:28.767Z,11.38
2019-05-26T04:19:28.755Z,11.43
2019-05-26T04:20:28.729Z,11.38
2019-05-26T04:21:28.737Z,11.45
2019-05-26T04:22:28.723Z,11.30
2019-05-26T04:23:28.686Z,11.38
2019-05-26T04:24:28.668Z,11.43
2019-05-26T04:25:28.663Z,11.49
2019-05-26T04:26:28.677Z,11.54
2019-05-26T04:27:28.635Z,11.51
2019-05-26T04:28:28.621Z,11.55
2019-05-26T04:29:28.623Z,11.61
2019-05-26T04:30:28.600Z,11.61
2019-05-26T04:31:28.621Z,11.46
2019-05-26T04:32:28.578Z,11.59
2019-05-26T04:33:28.567Z,11.66
2019-05-26T04:34:28.587Z,11.74
2019-05-26T04:35:28.543Z,11.66
2019-05-26T04:36:28.531Z,11.67
2019-05-26T04:37:28.532Z,11.77
2019-05-26T04:38:28.511Z,11.82
2019-05-26T04:39:28.536Z,11.82
2019-05-26T04:40:28.497Z,11.82
2019-05-26T04:41:28.474Z,11.89
2019-05-26T04:42:28.605Z,11.85
2019-05-26T04:43:28.462Z,11.97
2019-05-26T04:44:28.478Z,11.93
2019-05-26T04:45:28.473Z,11.89
2019-05-26T04:46:28.419Z,11.91
2019-05-26T04:47:28.407Z,11.89
2019-05-26T04:48:28.395Z,11.96
2019-05-26T04:49:28.384Z,12.04
2019-05-26T04:50:28.373Z,11.96
2019-05-26T04:51:28.404Z,12.15
2019-05-26T04:52:28.353Z,12.11
2019-05-26T04:53:28.336Z,12.18
2019-05-26T04:54:28.359Z,12.17
2019-05-26T04:55:28.315Z,12.18
2019-05-26T04:56:28.309Z,12.28
2019-05-26T04:57:28.295Z,12.29
2019-05-26T04:58:28.313Z,12.28
2019-05-26T04:59:28.302Z,12.43
2019-05-26T05:00:28.263Z,12.47
2019-05-26T05:01:28.252Z,12.47
2019-05-26T05:02:28.236Z,12.47
2019-05-26T05:03:28.259Z,12.47
2019-05-26T05:04:28.226Z,12.48
2019-05-26T05:05:28.202Z,12.50
2019-05-26T05:06:28.195Z,12.48
2019-05-26T05:07:28.759Z,12.55
2019-05-26T05:08:28.255Z,12.65
2019-05-26T05:09:28.192Z,12.69
2019-05-26T05:10:41.338Z,12.72
2019-05-26T05:11:29.131Z,12.76
2019-05-26T05:12:28.121Z,12.81
2019-05-26T05:13:28.114Z,12.83
2019-05-26T05:14:28.100Z,12.83
2019-05-26T05:15:28.130Z,12.90
2019-05-26T05:16:28.108Z,13.01
2019-05-26T05:17:28.072Z,12.99
2019-05-26T05:18:28.094Z,13.11
2019-05-26T05:19:28.042Z,13.13
2019-05-26T05:20:28.060Z,13.19
2019-05-26T05:21:28.023Z,13.19
2019-05-26T05:22:28.040Z,13.24
2019-05-26T05:23:28.005Z,13.24
2019-05-26T05:24:27.985Z,13.30
2019-05-26T05:25:28.013Z,13.26
2019-05-26T05:26:27.961Z,13.36
2019-05-26T05:27:27.990Z,13.40
2019-05-26T05:28:27.977Z,13.42
2019-05-26T05:29:27.929Z,13.43
2019-05-26T05:30:27.920Z,13.55
2019-05-26T05:31:27.911Z,13.57
2019-05-26T05:32:27.897Z,13.51
2019-05-26T05:33:27.883Z,13.63
2019-05-26T05:34:27.919Z,13.67
2019-05-26T05:35:27.860Z,13.75
2019-05-26T05:36:27.849Z,13.64
2019-05-26T05:37:27.838Z,13.75
2019-05-26T05:38:27.827Z,13.79
2019-05-26T05:39:27.812Z,13.86
2019-05-26T05:40:27.831Z,13.90
2019-05-26T05:41:27.793Z,13.91
2019-05-26T05:42:27.784Z,13.94
2019-05-26T05:43:27.804Z,13.93
2019-05-26T05:44:27.761Z,13.97
2019-05-26T05:45:27.747Z,14.03
2019-05-26T05:46:27.738Z,14.05
2019-05-26T05:47:27.726Z,14.11
2019-05-26T05:48:27.711Z,14.09
2019-05-26T05:49:27.745Z,14.12
2019-05-26T05:50:27.693Z,14.13
2019-05-26T05:51:27.683Z,14.26
2019-05-26T05:52:27.667Z,14.26
2019-05-26T05:53:27.658Z,14.40
2019-05-26T05:54:27.649Z,14.34
2019-05-26T05:55:27.672Z,14.40
2019-05-26T05:56:27.630Z,14.37
2019-05-26T05:57:27.617Z,14.44
2019-05-26T05:58:27.603Z,14.36
2019-05-26T05:59:27.592Z,14.37
2019-05-26T06:00:27.611Z,14.38
2019-05-26T06:01:27.569Z,14.41
2019-05-26T06:02:27.557Z,14.36
2019-05-26T06:03:27.581Z,14.34
2019-05-26T06:04:27.536Z,14.37
2019-05-26T06:05:27.522Z,14.36
2019-05-26T06:06:27.512Z,14.41
2019-05-26T06:07:27.500Z,14.45
2019-05-26T06:08:27.523Z,14.53
2019-05-26T06:09:27.521Z,14.55
2019-05-26T06:10:27.465Z,14.55
2019-05-26T06:11:27.455Z,14.52
2019-05-26T06:12:27.443Z,14.61
2019-05-26T06:13:27.433Z,14.63
2019-05-26T06:14:27.483Z,14.74
2019-05-26T06:15:27.444Z,14.74
2019-05-26T06:16:27.397Z,14.71
2019-05-26T06:17:27.397Z,14.74
2019-05-26T06:18:27.383Z,14.74
2019-05-26T06:19:27.398Z,14.86
2019-05-26T06:20:27.357Z,14.93
2019-05-26T06:21:27.341Z,14.99
2019-05-26T06:22:27.330Z,14.97
2019-05-26T06:23:27.370Z,15.04
2019-05-26T06:24:27.309Z,14.99
2019-05-26T06:25:27.347Z,15.08
2019-05-26T06:26:27.286Z,15.07
2019-05-26T06:27:27.275Z,15.08
2019-05-26T06:28:27.269Z,15.07
2019-05-26T06:29:27.288Z,15.10
2019-05-26T06:30:27.242Z,15.07
2019-05-26T06:31:27.231Z,15.23
2019-05-26T06:32:27.257Z,15.29
2019-05-26T06:33:27.209Z,15.33
2019-05-26T06:34:27.199Z,15.33
2019-05-26T06:35:27.186Z,15.48
2019-05-26T06:36:27.178Z,15.45
2019-05-26T06:37:27.171Z,15.54
2019-05-26T06:38:27.187Z,15.54
2019-05-26T06:39:27.178Z,15.56
2019-05-26T06:40:27.133Z,15.66
2019-05-26T06:41:33.502Z,15.77
2019-05-26T06:42:28.116Z,15.80
2019-05-26T06:43:27.128Z,15.81
2019-05-26T06:44:27.100Z,15.88
2019-05-26T06:45:27.085Z,15.88
2019-05-26T06:46:27.062Z,15.99
2019-05-26T06:47:27.054Z,15.90
2019-05-26T06:48:27.285Z,15.83
2019-05-26T06:49:27.066Z,15.90
2019-05-26T06:50:27.022Z,15.98
2019-05-26T06:51:27.009Z,15.91
2019-05-26T06:52:26.996Z,15.98
2019-05-26T06:53:26.986Z,16.03
2019-05-26T06:54:26.973Z,16.03
2019-05-26T06:55:26.997Z,15.99
2019-05-26T06:56:26.954Z,15.96
2019-05-26T06:57:26.977Z,16.08
2019-05-26T06:58:26.933Z,16.08
2019-05-26T06:59:26.918Z,16.08
2019-05-26T07:00:26.904Z,16.14
2019-05-26T07:01:26.923Z,16.17
2019-05-26T07:02:26.883Z,16.16
2019-05-26T07:03:26.907Z,16.26
2019-05-26T07:04:26.861Z,16.34
2019-05-26T07:05:26.853Z,16.36
2019-05-26T07:06:26.885Z,16.43
2019-05-26T07:07:26.827Z,16.52
2019-05-26T07:08:26.818Z,16.46
2019-05-26T07:09:26.870Z,16.57
2019-05-26T07:10:26.807Z,16.52
2019-05-26T07:11:26.782Z,16.57
2019-05-26T07:12:26.805Z,16.58
2019-05-26T07:13:26.767Z,16.69
2019-05-26T07:14:26.751Z,16.80
2019-05-26T07:15:26.741Z,16.91
2019-05-26T07:16:37.616Z,17.04
2019-05-26T07:17:27.713Z,17.07
2019-05-26T07:18:26.713Z,17.06
2019-05-26T07:19:26.695Z,17.07
2019-05-26T07:20:26.686Z,17.09
2019-05-26T07:21:26.671Z,17.20
2019-05-26T07:22:26.692Z,17.25
2019-05-26T07:23:26.649Z,17.41
2019-05-26T07:24:29.314Z,17.38
2019-05-26T07:25:26.625Z,17.30
2019-05-26T07:26:26.615Z,17.41
2019-05-26T07:27:26.605Z,17.41
2019-05-26T07:28:26.592Z,17.56
2019-05-26T07:29:26.580Z,17.52
2019-05-26T07:30:26.604Z,17.69
2019-05-26T07:31:26.565Z,17.73
2019-05-26T07:32:26.557Z,17.72
2019-05-26T07:33:26.560Z,17.76
2019-05-26T07:34:26.558Z,17.90
2019-05-26T07:35:26.515Z,17.99
2019-05-26T07:36:26.531Z,18.01
2019-05-26T07:37:26.491Z,17.94
2019-05-26T07:38:26.554Z,17.94
2019-05-26T07:39:26.498Z,18.01
2019-05-26T07:40:26.461Z,18.01
2019-05-26T07:41:26.446Z,18.03
2019-05-26T07:42:26.435Z,18.12
2019-05-26T07:43:28.137Z,18.09
2019-05-26T07:44:26.451Z,18.08
2019-05-26T07:45:26.402Z,18.08
2019-05-26T07:46:26.392Z,18.20
2019-05-26T07:47:26.409Z,18.18
2019-05-26T07:48:26.371Z,18.28
2019-05-26T07:49:26.356Z,18.33
2019-05-26T07:50:26.345Z,18.34
2019-05-26T07:51:26.338Z,18.41
2019-05-26T07:52:26.360Z,18.49
2019-05-26T07:53:26.312Z,18.56
2019-05-26T07:54:26.326Z,18.51
2019-05-26T07:55:26.293Z,18.49
2019-05-26T07:56:26.278Z,18.57
2019-05-26T07:57:26.301Z,18.67
2019-05-26T07:58:26.256Z,18.76
2019-05-26T07:59:26.243Z,18.68
2019-05-26T08:00:26.266Z,18.81
2019-05-26T08:01:35.110Z,18.71
2019-05-26T08:02:27.213Z,18.52
2019-05-26T08:03:26.199Z,18.54
2019-05-26T08:04:26.194Z,18.64
2019-05-26T08:05:26.209Z,18.63
2019-05-26T08:06:26.171Z,18.71
2019-05-26T08:07:26.190Z,18.83
2019-05-26T08:08:26.145Z,18.86
2019-05-26T08:09:26.133Z,18.76
2019-05-26T08:10:26.125Z,18.81
2019-05-26T08:11:26.111Z,18.67
2019-05-26T08:12:30.436Z,18.78
2019-05-26T08:13:26.088Z,18.75
2019-05-26T08:14:26.082Z,18.79
2019-05-26T08:15:26.099Z,18.75
2019-05-26T08:16:26.053Z,18.71
2019-05-26T08:17:26.053Z,18.68
2019-05-26T08:18:26.066Z,18.89
2019-05-26T08:19:26.021Z,18.89
2019-05-26T08:20:26.010Z,18.79
2019-05-26T08:21:26.000Z,18.83
2019-05-26T08:22:26.024Z,18.88
2019-05-26T08:23:26.007Z,18.98
2019-05-26T08:24:25.970Z,19.04
2019-05-26T08:25:26.000Z,19.01
2019-05-26T08:26:25.948Z,19.07
2019-05-26T08:27:25.940Z,19.01
2019-05-26T08:28:25.952Z,19.19
2019-05-26T08:29:25.909Z,19.26
2019-05-26T08:30:25.899Z,19.24
2019-05-26T08:31:25.888Z,19.26
2019-05-26T08:32:25.919Z,19.32
2019-05-26T08:33:25.864Z,19.42
2019-05-26T08:34:25.853Z,19.37
2019-05-26T08:35:25.841Z,19.34
2019-05-26T08:36:25.831Z,19.52
2019-05-26T08:37:25.833Z,19.56
2019-05-26T08:38:25.882Z,19.75
2019-05-26T08:39:25.797Z,19.71
2019-05-26T08:40:25.787Z,19.78
2019-05-26T08:41:25.791Z,19.75
2019-05-26T08:42:28.873Z,19.90
2019-05-26T08:43:26.785Z,20.02
2019-05-26T08:44:25.744Z,19.96
2019-05-26T08:45:25.732Z,20.11
2019-05-26T08:46:25.725Z,20.17
2019-05-26T08:47:25.738Z,20.07
2019-05-26T08:48:25.703Z,19.92
2019-05-26T08:49:25.691Z,19.75
2019-05-26T08:50:25.682Z,19.67
2019-05-26T08:51:25.706Z,19.71
2019-05-26T08:52:25.655Z,19.75
2019-05-26T08:53:25.644Z,19.89
2019-05-26T08:54:25.637Z,19.97
2019-05-26T08:55:25.659Z,19.92
2019-05-26T08:56:25.609Z,19.99
2019-05-26T08:57:25.598Z,20.07
2019-05-26T08:58:28.696Z,20.14
2019-05-26T08:59:25.576Z,20.07
2019-05-26T09:00:25.567Z,20.17
2019-05-26T09:01:25.585Z,20.29
2019-05-26T09:02:25.580Z,20.27
2019-05-26T09:03:25.533Z,20.15
2019-05-26T09:04:25.526Z,20.17
2019-05-26T09:05:25.546Z,20.09
2019-05-26T09:06:25.504Z,20.08
2019-05-26T09:07:25.523Z,20.08
2019-05-26T09:08:25.479Z,20.09
2019-05-26T09:09:25.467Z,20.22
2019-05-26T09:10:25.469Z,20.08
2019-05-26T09:11:25.491Z,20.19
2019-05-26T09:12:25.445Z,20.17
2019-05-26T09:13:25.424Z,20.19
2019-05-26T09:14:25.656Z,20.25
2019-05-26T09:15:25.417Z,20.26
2019-05-26T09:16:25.395Z,20.29
2019-05-26T09:17:25.411Z,20.27
2019-05-26T09:18:25.369Z,20.39
2019-05-26T09:19:25.359Z,20.44
2019-05-26T09:20:25.353Z,20.56
2019-05-26T09:21:25.338Z,20.60
2019-05-26T09:22:25.365Z,20.73
2019-05-26T09:23:25.322Z,20.95
2019-05-26T09:24:25.352Z,20.92
2019-05-26T09:25:25.295Z,20.86
2019-05-26T09:26:25.295Z,21.05
2019-05-26T09:27:25.279Z,21.14
2019-05-26T09:28:25.298Z,21.22
2019-05-26T09:29:25.294Z,21.20
2019-05-26T09:30:25.247Z,21.35
2019-05-26T09:31:25.226Z,21.34
2019-05-26T09:32:25.220Z,21.28
2019-05-26T09:33:25.245Z,21.16
2019-05-26T09:34:25.290Z,21.20
2019-05-26T09:35:25.183Z,21.34
2019-05-26T09:36:25.171Z,21.40
2019-05-26T09:37:25.193Z,21.55
2019-05-26T09:38:25.153Z,21.62
2019-05-26T09:39:25.163Z,21.62
2019-05-26T09:40:25.127Z,21.60
2019-05-26T09:41:25.151Z,21.55
2019-05-26T09:42:25.134Z,21.53
2019-05-26T09:43:25.093Z,21.44
2019-05-26T09:44:25.094Z,21.29
2019-05-26T09:45:25.074Z,21.18
2019-05-26T09:46:25.070Z,20.97
2019-05-26T09:47:25.082Z,20.98
2019-05-26T09:48:25.081Z,20.82
2019-05-26T09:49:25.037Z,20.77
2019-05-26T09:50:25.036Z,20.75
2019-05-26T09:51:25.008Z,20.61
2019-05-26T09:52:24.993Z,20.49
2019-05-26T09:53:24.981Z,20.52
2019-05-26T09:54:25.093Z,20.44
2019-05-26T09:55:25.000Z,20.58
2019-05-26T09:56:24.951Z,20.68
2019-05-26T09:57:24.986Z,20.70
2019-05-26T09:58:25.336Z,20.82
2019-05-26T09:59:24.913Z,20.95
2019-05-26T10:00:24.902Z,21.14
2019-05-26T10:01:24.972Z,21.23
2019-05-26T10:02:24.931Z,21.23
2019-05-26T10:03:24.886Z,21.22
2019-05-26T10:04:24.867Z,21.29
2019-05-26T10:05:24.852Z,21.23
2019-05-26T10:06:24.839Z,21.32
2019-05-26T10:07:24.828Z,21.37
2019-05-26T10:08:24.847Z,21.38
2019-05-26T10:09:24.806Z,21.32
2019-05-26T10:10:24.797Z,21.35
2019-05-26T10:11:24.781Z,21.44
2019-05-26T10:12:24.801Z,21.53
2019-05-26T10:13:31.696Z,21.50
2019-05-26T10:14:25.751Z,21.41
2019-05-26T10:15:24.736Z,21.56
2019-05-26T10:16:24.723Z,21.56
2019-05-26T10:17:24.747Z,21.75
2019-05-26T10:18:24.761Z,21.97
2019-05-26T10:19:24.694Z,22.01
2019-05-26T10:20:24.685Z,22.18
2019-05-26T10:21:24.667Z,22.36
2019-05-26T10:22:24.655Z,22.18
2019-05-26T10:23:24.676Z,22.28
2019-05-26T10:24:24.671Z,22.22
2019-05-26T10:25:24.667Z,22.15
2019-05-26T10:26:24.610Z,22.30
2019-05-26T10:27:24.631Z,22.31
2019-05-26T10:28:24.588Z,22.43
2019-05-26T10:29:24.578Z,22.51
2019-05-26T10:30:24.614Z,22.58
2019-05-26T10:31:24.568Z,22.61
2019-05-26T10:32:25.489Z,22.52
2019-05-26T10:33:24.535Z,22.53
2019-05-26T10:34:24.525Z,22.36
2019-05-26T10:35:24.550Z,22.37
2019-05-26T10:36:24.505Z,22.52
2019-05-26T10:37:24.751Z,22.89
2019-05-26T10:38:24.474Z,23.07
2019-05-26T10:39:24.468Z,23.15
2019-05-26T10:40:24.453Z,23.21
2019-05-26T10:41:24.442Z,23.39
2019-05-26T10:42:24.466Z,23.49
2019-05-26T10:43:24.424Z,23.76
2019-05-26T10:44:24.821Z,23.94
2019-05-26T10:45:24.423Z,24.23
2019-05-26T10:46:24.390Z,24.58
2019-05-26T10:47:24.380Z,24.94
2019-05-26T10:48:24.377Z,25.14
2019-05-26T10:49:24.354Z,25.38
2019-05-26T10:50:24.399Z,25.36
2019-05-26T10:51:24.340Z,25.30
2019-05-26T10:52:24.334Z,25.38
2019-05-26T10:53:24.312Z,25.28
2019-05-26T10:54:24.310Z,25.37
2019-05-26T10:55:24.296Z,24.71
2019-05-26T10:56:24.312Z,24.55
2019-05-26T10:57:24.269Z,24.55
2019-05-26T10:58:24.257Z,24.60
2019-05-26T10:59:24.682Z,24.66
2019-05-26T11:00:24.265Z,24.89
2019-05-26T11:01:24.223Z,24.96
2019-05-26T11:02:24.247Z,24.82
2019-05-26T11:03:24.201Z,24.75
2019-05-26T11:04:24.228Z,24.55
2019-05-26T11:05:24.211Z,24.74
2019-05-26T11:06:24.200Z,24.86
2019-05-26T11:07:26.908Z,24.91
2019-05-26T11:08:24.146Z,25.03
2019-05-26T11:09:24.140Z,25.34
2019-05-26T11:10:24.125Z,25.14
2019-05-26T11:11:24.147Z,24.96
2019-05-26T11:12:24.105Z,25.12
2019-05-26T11:13:24.089Z,25.26
2019-05-26T11:14:24.081Z,25.27
2019-05-26T11:15:24.070Z,25.26
2019-05-26T11:16:24.094Z,25.45
2019-05-26T11:17:24.054Z,25.74
2019-05-26T11:18:24.034Z,25.46
2019-05-26T11:19:24.027Z,25.16
2019-05-26T11:20:24.024Z,25.14
2019-05-26T11:21:24.045Z,24.94
2019-05-26T11:22:24.030Z,24.96
2019-05-26T11:23:23.995Z,24.71
2019-05-26T11:24:24.010Z,24.66
2019-05-26T11:25:23.960Z,24.41
2019-05-26T11:26:23.983Z,24.40
2019-05-26T11:27:23.937Z,24.45
2019-05-26T11:28:23.960Z,24.60
2019-05-26T11:29:23.922Z,24.55
2019-05-26T11:30:23.904Z,24.53
2019-05-26T11:31:23.932Z,24.52
2019-05-26T11:32:23.894Z,24.33
2019-05-26T11:33:23.904Z,24.25
2019-05-26T11:34:23.864Z,23.94
2019-05-26T11:35:23.858Z,24.03
2019-05-26T11:36:23.847Z,24.34
2019-05-26T11:37:23.858Z,24.53
2019-05-26T11:38:23.912Z,24.45
2019-05-26T11:39:24.808Z,24.37
2019-05-26T11:40:23.836Z,23.92
2019-05-26T11:41:23.782Z,23.84
2019-05-26T11:42:23.773Z,23.92
2019-05-26T11:43:23.768Z,24.03
2019-05-26T11:44:23.752Z,24.06
2019-05-26T11:45:23.741Z,24.18
2019-05-26T11:46:23.759Z,24.04
2019-05-26T11:47:23.751Z,24.16
2019-05-26T11:48:23.824Z,24.29
2019-05-26T11:49:23.693Z,24.48
2019-05-26T11:50:23.682Z,24.37
2019-05-26T11:51:23.709Z,24.19
2019-05-26T11:52:23.664Z,24.40
2019-05-26T11:53:23.655Z,24.60
2019-05-26T11:54:23.644Z,24.75
2019-05-26T11:55:23.671Z,24.81
2019-05-26T11:56:23.620Z,24.71
2019-05-26T11:57:23.610Z,24.82
2019-05-26T11:58:23.632Z,24.68
2019-05-26T11:59:23.592Z,24.71
2019-05-26T12:00:23.682Z,24.93
2019-05-26T12:01:23.632Z,24.90
2019-05-26T12:02:23.549Z,24.90
2019-05-26T12:03:23.573Z,25.06
2019-05-26T12:04:23.533Z,25.08
2019-05-26T12:05:23.519Z,24.96
2019-05-26T12:06:23.506Z,24.99
2019-05-26T12:07:23.496Z,24.82
2019-05-26T12:08:23.487Z,25.03
2019-05-26T12:09:23.516Z,25.14
2019-05-26T12:10:23.574Z,25.31
2019-05-26T12:11:23.460Z,25.26
2019-05-26T12:12:23.442Z,24.81
2019-05-26T12:13:23.429Z,24.53
2019-05-26T12:14:34.210Z,24.34
2019-05-26T12:15:24.443Z,24.52
2019-05-26T12:16:23.403Z,24.37
2019-05-26T12:17:23.387Z,24.59
2019-05-26T12:18:23.428Z,24.36
2019-05-26T12:19:23.364Z,24.58
2019-05-26T12:20:23.355Z,24.59
2019-05-26T12:21:23.377Z,24.68
2019-05-26T12:22:23.335Z,24.58
2019-05-26T12:23:23.319Z,24.41
2019-05-26T12:24:23.346Z,24.07
2019-05-26T12:25:23.297Z,23.69
2019-05-26T12:26:23.297Z,23.60
2019-05-26T12:27:23.296Z,23.69
2019-05-26T12:28:23.306Z,23.59
2019-05-26T12:29:23.259Z,23.73
2019-05-26T12:30:23.247Z,23.86
2019-05-26T12:31:23.238Z,24.07
2019-05-26T12:32:23.225Z,24.33
2019-05-26T12:33:23.216Z,24.41
2019-05-26T12:34:23.240Z,24.45
2019-05-26T12:35:23.190Z,24.59
2019-05-26T12:36:23.178Z,24.79
2019-05-26T12:37:23.167Z,24.70
2019-05-26T12:38:23.512Z,24.78
2019-05-26T12:39:23.161Z,24.70
2019-05-26T12:40:23.169Z,24.82
2019-05-26T12:41:23.192Z,24.86
2019-05-26T12:42:23.111Z,25.01
2019-05-26T12:43:23.122Z,24.66
2019-05-26T12:44:23.091Z,24.82
2019-05-26T12:45:23.089Z,24.74
2019-05-26T12:46:23.102Z,24.82
2019-05-26T12:47:23.055Z,24.75
2019-05-26T12:48:23.045Z,24.81
2019-05-26T12:49:23.033Z,25.03
2019-05-26T12:50:23.054Z,25.08
2019-05-26T12:51:23.019Z,25.28
2019-05-26T12:52:23.000Z,25.37